This is the latest recevied weather packets stored in our database for station/object 9A7DI-13. If no packets are shown the sender has not sent any weather packets the latest 10 day(s).
| Time | Temp. | Humidity | Pressure | Rain* | Wind** | Luminosity | Snow |
|---|---|---|---|---|---|---|---|
| 1777700235 | 16.11° C | 45% | 1032.8 hPa | - | - | - | - |
| 1777699635 | 15° C | 47% | 1032.8 hPa | - | - | - | - |
| 1777699035 | 13.89° C | 48% | 1032.8 hPa | - | - | - | - |
| 1777698435 | 12.78° C | 54% | 1032.9 hPa | - | - | - | - |
| 1777697835 | 11.11° C | 59% | 1032.9 hPa | - | - | - | - |
| 1777697235 | 10° C | 62% | 1033 hPa | - | - | - | - |
| 1777696635 | 9.44° C | 64% | 1033 hPa | - | - | - | - |
| 1777696035 | 8.33° C | 68% | 1033.1 hPa | - | - | - | - |
| 1777695435 | 8.33° C | 69% | 1033.2 hPa | - | - | - | - |
| 1777694835 | 8.33° C | 69% | 1033.2 hPa | - | - | - | - |
| 1777694235 | 7.78° C | 70% | 1033.2 hPa | - | - | - | - |
| 1777693635 | 7.78° C | 70% | 1033.3 hPa | - | - | - | - |
| 1777693035 | 7.78° C | 71% | 1033.3 hPa | - | - | - | - |
| 1777692435 | 7.78° C | 70% | 1033.2 hPa | - | - | - | - |
| 1777691835 | 7.78° C | 70% | 1033.3 hPa | - | - | - | - |
| 1777691235 | 7.78° C | 71% | 1033.3 hPa | - | - | - | - |
| 1777690647 | 7.78° C | 71% | 1033.4 hPa | - | - | - | - |
| 1777690035 | 7.78° C | 69% | 1033.5 hPa | - | - | - | - |
| 1777689435 | 7.22° C | 69% | 1033.5 hPa | - | - | - | - |
| 1777688835 | 7.22° C | 69% | 1033.5 hPa | - | - | - | - |
| 1777688235 | 7.22° C | 69% | 1033.5 hPa | - | - | - | - |
| 1777687635 | 7.22° C | 70% | 1033.4 hPa | - | - | - | - |
| 1777687035 | 7.22° C | 67% | 1033.3 hPa | - | - | - | - |
| 1777686435 | 7.22° C | 66% | 1033.3 hPa | - | - | - | - |
| 1777685835 | 7.22° C | 66% | 1033.3 hPa | - | - | - | - |
* Rain since midnight (hover to see other rain measurements)
** Current wind speed in m/s (hover to see current wind gust speed)